Time;durP1;ratioP1;P1;durP2;ratioP2;P2;SDS_P1;SDS_P2;PMS_P1;PMS_P2;Temp;Humidity;BMP_temperature;BMP_pressure;BME280_temperature;BME280_humidity;BME280_pressure;Samples;Min_cycle;Max_cycle;Signal;HPM_P1;HPM_P2
2023/06/08 00:02:23;;;;;;;3.10;2.67;;;16.20;99.90;;;;;;5151592;27;20182;-67
2023/06/08 00:04:50;;;;;;;5.67;3.70;;;16.10;99.90;;;;;;5151354;27;20175;-67
2023/06/08 00:07:16;;;;;;;5.27;3.27;;;16.10;99.90;;;;;;5151139;27;20436;-67
2023/06/08 00:09:42;;;;;;;4.03;3.53;;;16.10;99.90;;;;;;5151335;27;20423;-67
2023/06/08 00:12:08;;;;;;;3.83;3.43;;;16.20;99.90;;;;;;5151238;27;20201;-67
2023/06/08 00:14:35;;;;;;;2.90;2.70;;;16.20;99.90;;;;;;5151220;27;20873;-67
2023/06/08 00:17:03;;;;;;;3.57;3.23;;;16.30;99.90;;;;;;5151216;27;20439;-67
2023/06/08 00:19:33;;;;;;;3.13;2.83;;;16.20;99.90;;;;;;5132463;27;20461;-67
2023/06/08 00:22:04;;;;;;;2.90;2.53;;;16.30;99.90;;;;;;5151122;27;20546;-67
2023/06/08 00:24:34;;;;;;;5.20;2.70;;;16.40;99.90;;;;;;5151280;27;20491;-67
2023/06/08 00:27:00;;;;;;;3.43;3.13;;;16.40;99.90;;;;;;5150989;27;20456;-67
2023/06/08 00:29:26;;;;;;;4.90;3.40;;;16.40;99.90;;;;;;5151294;27;20780;-67
2023/06/08 00:31:52;;;;;;;4.17;3.77;;;16.40;99.90;;;;;;5151403;27;20773;-67
2023/06/08 00:34:18;;;;;;;3.57;2.70;;;16.30;99.90;;;;;;5151695;27;20438;-69
2023/06/08 00:36:44;;;;;;;3.40;3.10;;;16.30;99.90;;;;;;5132902;27;20429;-67
2023/06/08 00:39:10;;;;;;;3.07;2.77;;;16.10;99.90;;;;;;5151695;27;20459;-67
2023/06/08 00:41:35;;;;;;;6.60;3.27;;;15.90;99.90;;;;;;5151623;27;20404;-67
2023/06/08 00:44:03;;;;;;;3.83;3.10;;;15.90;99.90;;;;;;5151036;27;20179;-66
2023/06/08 00:46:30;;;;;;;6.53;3.17;;;16.00;99.90;;;;;;5151579;27;20240;-67
2023/06/08 00:48:57;;;;;;;3.50;3.20;;;16.10;99.90;;;;;;5151547;27;20496;-68
2023/06/08 00:51:24;;;;;;;2.87;2.60;;;16.20;99.90;;;;;;5133139;27;20801;-67
2023/06/08 00:53:52;;;;;;;4.50;3.10;;;16.20;99.90;;;;;;5151534;27;20461;-67
2023/06/08 00:56:19;;;;;;;3.23;2.93;;;16.30;99.90;;;;;;5151364;27;20933;-67
2023/06/08 00:58:49;;;;;;;4.57;2.97;;;16.30;99.90;;;;;;5151203;27;20464;-67
2023/06/08 01:01:18;;;;;;;3.03;2.80;;;16.30;99.90;;;;;;5151438;27;20443;-67
2023/06/08 01:03:45;;;;;;;3.60;3.30;;;16.30;99.90;;;;;;5151196;27;20473;-67
2023/06/08 01:06:12;;;;;;;5.13;3.20;;;16.40;99.90;;;;;;5151128;27;20423;-67
2023/06/08 01:09:11;;;;;;;3.90;3.13;;;16.30;99.90;;;;;;5155046;27;20433;-68
2023/06/08 01:12:10;;;;;;;3.97;2.80;;;16.10;99.90;;;;;;5155012;27;20516;-67
2023/06/08 01:15:04;;;;;;;4.70;2.43;;;16.00;99.90;;;;;;5155090;27;20849;-68
2023/06/08 01:17:41;;;;;;;9.50;2.80;;;16.00;99.90;;;;;;5114056;27;20866;-68
2023/06/08 01:20:32;;;;;;;5.20;2.83;;;16.10;99.90;;;;;;5154821;27;20426;-68
2023/06/08 01:23:00;;;;;;;7.60;3.20;;;16.20;99.90;;;;;;5154616;27;20493;-67
2023/06/08 01:25:31;;;;;;;2.90;2.70;;;16.20;99.90;;;;;;5154585;27;20467;-67
2023/06/08 01:28:12;;;;;;;3.07;2.80;;;16.20;99.90;;;;;;5154156;27;21277;-67
2023/06/08 01:30:48;;;;;;;3.23;2.93;;;16.10;99.90;;;;;;5154126;27;20415;-67
2023/06/08 01:33:24;;;;;;;4.97;2.83;;;16.10;99.90;;;;;;5154039;27;20468;-67
2023/06/08 01:35:59;;;;;;;8.57;2.70;;;16.10;99.90;;;;;;5153952;27;20979;-67
2023/06/08 01:38:51;;;;;;;3.67;2.90;;;16.10;99.90;;;;;;5153702;27;20466;-67
2023/06/08 01:41:24;;;;;;;3.03;2.83;;;16.10;99.90;;;;;;5153881;27;20407;-67
2023/06/08 01:43:51;;;;;;;5.67;2.70;;;16.00;99.90;;;;;;5135241;27;20416;-68
2023/06/08 01:46:18;;;;;;;2.60;2.40;;;15.90;99.90;;;;;;5153592;27;20424;-68
2023/06/08 01:48:47;;;;;;;4.60;2.47;;;16.00;99.90;;;;;;5153432;27;20801;-67
2023/06/08 01:51:14;;;;;;;4.60;2.40;;;16.00;99.90;;;;;;5153601;27;20418;-67
2023/06/08 01:53:41;;;;;;;4.53;3.27;;;15.90;99.90;;;;;;5153413;27;20503;-67
2023/06/08 01:56:06;;;;;;;2.80;2.50;;;15.80;99.90;;;;;;5153328;27;20904;-67
2023/06/08 01:58:32;;;;;;;5.13;2.50;;;15.70;99.90;;;;;;5134829;27;20469;-67
2023/06/08 02:00:57;;;;;;;4.27;2.80;;;15.70;99.90;;;;;;5134841;27;20241;-67
2023/06/08 02:03:23;;;;;;;3.70;2.87;;;15.60;99.90;;;;;;5134771;27;20696;-67
2023/06/08 02:05:49;;;;;;;5.50;4.20;;;15.60;99.90;;;;;;5153325;27;20179;-67
2023/06/08 02:08:15;;;;;;;4.43;3.30;;;15.50;99.90;;;;;;5152938;27;20578;-67
2023/06/08 02:10:40;;;;;;;6.03;2.83;;;15.50;99.90;;;;;;5152854;27;20190;-67
2023/06/08 02:13:06;;;;;;;3.90;3.20;;;15.50;99.90;;;;;;5152935;27;20422;-67
2023/06/08 02:15:32;;;;;;;5.60;3.10;;;15.40;99.90;;;;;;5152701;27;20676;-67
2023/06/08 02:17:59;;;;;;;8.63;3.03;;;15.40;99.90;;;;;;5133108;27;20749;-67
2023/06/08 02:20:25;;;;;;;3.30;3.00;;;15.30;99.90;;;;;;5152348;27;20220;-68
2023/06/08 02:22:51;;;;;;;3.80;3.40;;;15.20;99.90;;;;;;5152468;27;20468;-68
2023/06/08 02:25:17;;;;;;;14.43;3.40;;;15.20;99.90;;;;;;5152605;27;20429;-68
2023/06/08 02:27:43;;;;;;;5.80;3.23;;;15.00;99.90;;;;;;5152436;27;20454;-68
2023/06/08 02:30:10;;;;;;;3.03;2.73;;;14.80;99.90;;;;;;5152527;27;20182;-67
2023/06/08 02:32:37;;;;;;;5.63;3.70;;;14.70;99.90;;;;;;5152403;27;20515;-67
2023/06/08 02:35:04;;;;;;;4.60;2.93;;;14.70;99.90;;;;;;5152351;27;20422;-67
2023/06/08 02:37:30;;;;;;;2.90;2.60;;;14.70;99.90;;;;;;5152177;27;20438;-67
2023/06/08 02:39:56;;;;;;;6.83;2.80;;;14.80;99.90;;;;;;5152176;27;20464;-67
2023/06/08 02:42:22;;;;;;;3.40;2.83;;;14.80;99.90;;;;;;5152218;27;20428;-67
2023/06/08 02:44:47;;;;;;;4.70;2.90;;;14.80;99.90;;;;;;5152501;27;20181;-67
2023/06/08 02:47:14;;;;;;;3.30;2.90;;;14.70;99.90;;;;;;5152515;27;20264;-66
2023/06/08 02:49:40;;;;;;;5.30;3.60;;;14.60;99.90;;;;;;5152917;27;20562;-66
2023/06/08 02:52:06;;;;;;;10.10;3.70;;;14.50;99.90;;;;;;5152847;27;20426;-67
2023/06/08 02:54:32;;;;;;;5.23;3.20;;;14.40;99.90;;;;;;5152656;27;20235;-67
2023/06/08 02:56:58;;;;;;;3.63;3.20;;;14.30;99.90;;;;;;5152592;27;20446;-66
2023/06/08 02:59:23;;;;;;;4.67;3.17;;;14.30;99.90;;;;;;5152643;27;20695;-67
2023/06/08 03:01:53;;;;;;;2.90;2.47;;;14.20;99.90;;;;;;5152509;27;20173;-67
2023/06/08 03:04:23;;;;;;;3.97;3.03;;;14.20;99.90;;;;;;5152333;27;20172;-67
2023/06/08 03:06:53;;;;;;;7.43;3.40;;;14.10;99.90;;;;;;5151841;27;20906;-67
2023/06/08 03:09:28;;;;;;;3.57;2.87;;;14.10;99.90;;;;;;5152501;27;20482;-67
2023/06/08 03:11:54;;;;;;;4.87;3.23;;;14.10;99.90;;;;;;5152081;27;20484;-68
2023/06/08 03:14:20;;;;;;;5.20;3.10;;;14.10;99.90;;;;;;5151842;27;20434;-68
2023/06/08 03:16:47;;;;;;;3.50;3.10;;;14.10;99.90;;;;;;5151921;27;20422;-68
2023/06/08 03:19:14;;;;;;;3.97;3.60;;;14.00;99.90;;;;;;5151860;27;20465;-68
2023/06/08 03:21:41;;;;;;;3.57;3.27;;;14.10;99.90;;;;;;5151788;27;20425;-67
2023/06/08 03:24:08;;;;;;;5.90;3.57;;;14.20;99.90;;;;;;5151970;27;20417;-67
2023/06/08 03:26:33;;;;;;;4.57;3.70;;;14.10;99.90;;;;;;5151732;27;20465;-67
2023/06/08 03:28:59;;;;;;;7.17;3.37;;;14.00;99.90;;;;;;5151448;27;20434;-67
2023/06/08 03:31:25;;;;;;;3.93;3.23;;;14.10;99.90;;;;;;5151290;27;20675;-67
2023/06/08 03:33:50;;;;;;;3.53;3.23;;;14.00;99.90;;;;;;5151319;27;20186;-67
2023/06/08 03:36:17;;;;;;;4.97;2.93;;;14.00;99.90;;;;;;5133060;27;20181;-67
2023/06/08 03:38:43;;;;;;;7.00;4.53;;;14.00;99.90;;;;;;5132948;27;20216;-68
2023/06/08 03:41:09;;;;;;;5.10;3.10;;;13.90;99.90;;;;;;5151837;27;20441;-67
2023/06/08 03:43:35;;;;;;;4.30;3.57;;;13.60;99.90;;;;;;5151839;27;20200;-67
2023/06/08 03:46:01;;;;;;;4.87;3.33;;;13.40;99.90;;;;;;5151805;27;20179;-67
2023/06/08 03:48:27;;;;;;;4.00;3.10;;;13.40;99.90;;;;;;5151789;27;20434;-67
2023/06/08 03:50:53;;;;;;;4.90;2.90;;;13.50;99.90;;;;;;5151748;27;20417;-67
2023/06/08 03:53:18;;;;;;;6.90;3.40;;;13.60;99.90;;;;;;5151648;27;20185;-67
2023/06/08 03:55:44;;;;;;;4.90;3.20;;;13.80;99.90;;;;;;5151490;27;20188;-67
2023/06/08 03:58:12;;;;;;;4.30;3.33;;;13.90;99.90;;;;;;5132711;27;20215;-67
2023/06/08 04:00:38;;;;;;;4.33;3.40;;;13.90;99.90;;;;;;5151519;27;20184;-67
2023/06/08 04:03:05;;;;;;;4.87;3.40;;;13.60;99.90;;;;;;5132834;27;20418;-67
2023/06/08 04:05:30;;;;;;;9.93;3.10;;;13.40;99.90;;;;;;5151264;27;20426;-67
2023/06/08 04:07:58;;;;;;;4.07;3.67;;;13.50;99.90;;;;;;5151160;27;20950;-67
2023/06/08 04:10:23;;;;;;;5.60;3.00;;;13.60;99.90;;;;;;5132912;27;20313;-68
2023/06/08 04:12:49;;;;;;;6.00;3.40;;;13.90;99.90;;;;;;5151452;27;21234;-67
2023/06/08 04:15:15;;;;;;;7.90;3.47;;;14.10;99.90;;;;;;5151171;27;20179;-66
2023/06/08 04:17:41;;;;;;;6.13;3.13;;;14.10;99.90;;;;;;5151085;27;20212;-67
2023/06/08 04:20:09;;;;;;;5.50;3.63;;;14.20;99.90;;;;;;5132823;27;20232;-67
2023/06/08 04:22:35;;;;;;;3.43;3.07;;;14.30;99.90;;;;;;5151220;27;20410;-67
2023/06/08 04:25:01;;;;;;;3.63;3.33;;;14.30;99.90;;;;;;5132456;27;20514;-67
2023/06/08 04:27:26;;;;;;;3.50;3.20;;;14.40;99.90;;;;;;5132449;27;20294;-67
2023/06/08 04:29:53;;;;;;;5.10;4.03;;;14.40;99.90;;;;;;5151074;27;20670;-67
2023/06/08 04:32:19;;;;;;;3.40;3.10;;;14.40;99.90;;;;;;5151136;27;20182;-67
2023/06/08 04:34:45;;;;;;;3.50;3.20;;;14.40;99.90;;;;;;5151041;27;20422;-66
2023/06/08 04:37:11;;;;;;;5.20;3.60;;;14.50;99.90;;;;;;5150971;27;20224;-67
2023/06/08 04:39:38;;;;;;;4.23;3.20;;;14.60;99.90;;;;;;5150979;27;20568;-67
2023/06/08 04:42:05;;;;;;;3.60;3.23;;;14.70;99.90;;;;;;5150464;27;20220;-67
2023/06/08 04:44:33;;;;;;;7.40;3.90;;;14.80;99.90;;;;;;5151115;27;20957;-67
2023/06/08 04:46:59;;;;;;;4.80;4.17;;;14.90;99.90;;;;;;5115668;27;20478;-67
2023/06/08 04:49:31;;;;;;;4.13;3.73;;;15.00;99.90;;;;;;5151175;27;20419;-67
2023/06/08 04:51:58;;;;;;;3.33;3.13;;;15.10;99.90;;;;;;5151523;27;20421;-67
2023/06/08 04:54:25;;;;;;;3.97;3.50;;;15.30;99.90;;;;;;5132953;27;20414;-67
2023/06/08 04:56:53;;;;;;;5.77;3.73;;;15.40;99.90;;;;;;5132897;27;20436;-67
2023/06/08 04:59:19;;;;;;;6.57;4.03;;;15.50;99.90;;;;;;5151668;27;20461;-67
2023/06/08 05:01:45;;;;;;;6.33;3.80;;;15.60;99.90;;;;;;5151631;27;20445;-67
2023/06/08 05:04:11;;;;;;;4.80;3.30;;;15.60;99.90;;;;;;5151511;27;20449;-67
2023/06/08 05:06:37;;;;;;;4.93;3.83;;;15.50;99.90;;;;;;5151498;27;20209;-67
2023/06/08 05:09:03;;;;;;;8.80;3.40;;;15.40;99.90;;;;;;5132845;27;20793;-68
2023/06/08 05:11:28;;;;;;;3.73;3.33;;;15.40;99.90;;;;;;5151484;27;20484;-67
2023/06/08 05:13:54;;;;;;;5.37;3.33;;;15.50;99.90;;;;;;5151419;27;20514;-67
2023/06/08 05:16:20;;;;;;;4.03;3.23;;;15.60;99.90;;;;;;5151302;27;20629;-67
2023/06/08 05:18:45;;;;;;;4.50;3.60;;;15.70;99.90;;;;;;5151119;27;20530;-67
2023/06/08 05:21:11;;;;;;;5.07;3.50;;;15.80;99.90;;;;;;5151133;27;20212;-68
2023/06/08 05:23:37;;;;;;;4.50;4.07;;;15.90;99.90;;;;;;5151089;27;20418;-67
2023/06/08 05:26:02;;;;;;;7.50;4.47;;;16.00;99.90;;;;;;5150846;27;20193;-67
2023/06/08 05:28:28;;;;;;;4.33;3.93;;;16.20;99.90;;;;;;5150633;27;20691;-67
2023/06/08 05:30:53;;;;;;;10.57;4.53;;;16.30;99.90;;;;;;5150374;27;20194;-67
2023/06/08 05:33:19;;;;;;;4.63;4.13;;;16.30;99.90;;;;;;5150228;27;20194;-68
2023/06/08 05:35:44;;;;;;;6.03;4.47;;;16.30;99.90;;;;;;5150189;27;20349;-67
2023/06/08 05:38:10;;;;;;;7.53;4.43;;;16.40;99.90;;;;;;5149925;27;20205;-67
2023/06/08 05:40:36;;;;;;;6.27;4.40;;;16.40;99.90;;;;;;5131544;27;20181;-67
2023/06/08 05:43:01;;;;;;;5.70;4.13;;;16.60;99.90;;;;;;5149943;27;20186;-68
2023/06/08 05:45:27;;;;;;;4.37;3.90;;;16.70;99.90;;;;;;5150130;27;20186;-68
2023/06/08 05:47:52;;;;;;;6.60;4.20;;;16.80;99.90;;;;;;5149908;27;20205;-67
2023/06/08 05:50:18;;;;;;;5.20;4.03;;;16.90;99.90;;;;;;5131375;27;20195;-68
2023/06/08 05:52:44;;;;;;;13.30;4.17;;;17.10;99.90;;;;;;5150075;27;20555;-71
2023/06/08 05:55:10;;;;;;;4.13;3.73;;;17.30;99.90;;;;;;5134268;27;20189;-67
2023/06/08 05:57:36;;;;;;;3.90;3.50;;;17.40;99.90;;;;;;5153356;27;20452;-71
2023/06/08 06:00:09;;;;;;;4.30;3.70;;;17.50;99.90;;;;;;5153487;27;20482;-71
2023/06/08 06:02:35;;;;;;;8.63;4.47;;;17.60;99.90;;;;;;5135167;27;20491;-71
2023/06/08 06:05:00;;;;;;;6.47;4.30;;;17.80;99.90;;;;;;5134740;27;20429;-71
2023/06/08 06:07:26;;;;;;;4.43;4.03;;;17.90;99.90;;;;;;5134671;27;20207;-70
2023/06/08 06:09:51;;;;;;;6.67;5.10;;;18.00;99.90;;;;;;5134309;27;20263;-70
2023/06/08 06:12:17;;;;;;;5.43;4.33;;;18.10;99.90;;;;;;5153208;27;20796;-71
2023/06/08 06:14:43;;;;;;;5.43;4.13;;;18.20;99.90;;;;;;5134550;27;20183;-70
2023/06/08 06:17:11;;;;;;;5.73;4.50;;;18.30;99.90;;;;;;5152995;27;20238;-71
2023/06/08 06:19:37;;;;;;;7.83;4.17;;;18.40;99.90;;;;;;5153133;27;20468;-70
2023/06/08 06:22:08;;;;;;;4.47;4.07;;;18.60;99.90;;;;;;5134357;27;20422;-70
2023/06/08 06:24:34;;;;;;;10.50;3.97;;;18.80;99.90;;;;;;5152743;27;20426;-70
2023/06/08 06:27:01;;;;;;;6.37;4.30;;;18.80;99.90;;;;;;5152420;27;20460;-71
2023/06/08 06:29:27;;;;;;;4.27;3.87;;;18.90;99.90;;;;;;5133686;27;20895;-71
2023/06/08 06:31:53;;;;;;;4.97;3.93;;;18.90;99.90;;;;;;5152433;27;20420;-71
2023/06/08 06:34:20;;;;;;;5.97;4.23;;;19.00;99.90;;;;;;5152451;27;20786;-71
2023/06/08 06:36:45;;;;;;;6.57;4.10;;;19.10;99.90;;;;;;5133772;27;20429;-71
2023/06/08 06:39:12;;;;;;;4.17;3.77;;;19.20;99.90;;;;;;5152373;27;20474;-71
2023/06/08 06:41:41;;;;;;;9.23;4.23;;;19.30;99.90;;;;;;5133637;27;20188;-70
2023/06/08 06:44:07;;;;;;;5.77;4.33;;;19.40;99.90;;;;;;5152699;27;20428;-69
2023/06/08 06:46:33;;;;;;;5.63;4.17;;;19.50;99.90;;;;;;5152545;27;20428;-70
2023/06/08 06:48:58;;;;;;;5.37;4.10;;;19.70;99.90;;;;;;5152230;27;20800;-70
2023/06/08 06:51:25;;;;;;;4.77;3.67;;;19.70;99.90;;;;;;5152337;27;20214;-71
2023/06/08 06:53:50;;;;;;;4.77;3.87;;;19.80;99.90;;;;;;5133658;27;20204;-70
2023/06/08 06:56:16;;;;;;;5.10;3.57;;;19.90;99.90;;;;;;5152245;27;20421;-70
2023/06/08 06:58:45;;;;;;;3.80;3.40;;;20.10;99.90;;;;;;5152122;27;20273;-70
2023/06/08 07:01:15;;;;;;;5.77;3.80;;;20.20;99.90;;;;;;5152094;27;20191;-71
2023/06/08 07:03:45;;;;;;;5.40;3.80;;;20.40;99.90;;;;;;5151892;27;20784;-71
2023/06/08 07:06:11;;;;;;;4.10;3.80;;;20.50;99.90;;;;;;5133281;27;20417;-70
2023/06/08 07:08:37;;;;;;;7.40;4.10;;;20.60;99.90;;;;;;5151783;27;20433;-70
2023/06/08 07:11:03;;;;;;;4.80;4.40;;;20.70;99.90;;;;;;5152231;27;20418;-71
2023/06/08 07:13:29;;;;;;;4.60;3.80;;;20.80;99.90;;;;;;5151869;27;20418;-70
2023/06/08 07:15:54;;;;;;;4.60;3.63;;;20.90;99.90;;;;;;5133025;27;20473;-70
2023/06/08 07:18:20;;;;;;;7.00;4.30;;;21.10;99.90;;;;;;5151461;27;20296;-70
2023/06/08 07:20:46;;;;;;;5.67;4.03;;;21.10;99.90;;;;;;5133062;27;20410;-70
2023/06/08 07:23:12;;;;;;;6.20;3.70;;;21.10;99.80;;;;;;5151594;27;20181;-71
2023/06/08 07:25:37;;;;;;;4.47;3.80;;;21.50;99.90;;;;;;5151645;27;20429;-70
2023/06/08 07:28:07;;;;;;;4.47;3.73;;;21.60;97.20;;;;;;5153406;27;20204;-70
2023/06/08 07:30:33;;;;;;;5.10;3.30;;;21.80;98.90;;;;;;5151994;27;20537;-70
2023/06/08 07:32:59;;;;;;;6.23;3.60;;;21.90;98.30;;;;;;5151620;27;20417;-70
2023/06/08 07:35:25;;;;;;;4.43;3.80;;;21.90;97.00;;;;;;5151423;27;20661;-70
2023/06/08 07:37:51;;;;;;;4.90;3.80;;;22.10;97.70;;;;;;5151440;27;20525;-71
2023/06/08 07:40:18;;;;;;;4.27;3.87;;;22.10;96.90;;;;;;5132441;27;20220;-71
2023/06/08 07:42:44;;;;;;;4.20;3.67;;;22.30;96.80;;;;;;5132572;27;20419;-71
2023/06/08 07:45:11;;;;;;;5.17;3.27;;;22.50;96.50;;;;;;5152297;27;20414;-70
2023/06/08 07:47:38;;;;;;;4.03;3.10;;;22.50;93.90;;;;;;5153240;27;20233;-70
2023/06/08 07:50:05;;;;;;;4.63;3.40;;;22.60;94.70;;;;;;5152051;27;20415;-70
2023/06/08 07:52:31;;;;;;;5.07;3.70;;;22.60;93.30;;;;;;5152734;27;20422;-70
2023/06/08 07:54:57;;;;;;;5.87;4.07;;;22.60;92.70;;;;;;5133114;27;20577;-70
2023/06/08 07:57:22;;;;;;;4.50;3.60;;;22.70;94.70;;;;;;5151475;27;20445;-70
2023/06/08 07:59:48;;;;;;;3.77;3.30;;;22.80;93.10;;;;;;5132776;27;20205;-69
2023/06/08 08:02:14;;;;;;;4.60;3.47;;;22.90;93.20;;;;;;5151369;27;20313;-69
2023/06/08 08:04:39;;;;;;;3.40;3.10;;;23.00;94.10;;;;;;5151079;27;20174;-69
2023/06/08 08:07:05;;;;;;;3.80;3.40;;;23.00;92.00;;;;;;5150728;27;20273;-69
2023/06/08 08:09:31;;;;;;;6.53;3.47;;;23.10;92.20;;;;;;5151277;27;20293;-71
2023/06/08 08:11:57;;;;;;;4.57;3.40;;;23.10;91.80;;;;;;5132387;27;21249;-71
2023/06/08 08:14:22;;;;;;;5.73;4.10;;;23.30;91.60;;;;;;5132216;27;20180;-71
2023/06/08 08:16:48;;;;;;;9.80;3.70;;;23.40;92.90;;;;;;5149805;27;20230;-71
2023/06/08 08:19:13;;;;;;;4.80;3.80;;;23.50;93.60;;;;;;5131831;27;20873;-71
2023/06/08 08:21:39;;;;;;;4.37;3.53;;;23.60;92.90;;;;;;5150536;27;20188;-70
2023/06/08 08:24:05;;;;;;;6.10;3.93;;;23.70;93.30;;;;;;5150554;27;20176;-70
2023/06/08 08:26:31;;;;;;;6.37;3.63;;;23.80;91.60;;;;;;5132583;27;20198;-70
2023/06/08 08:28:56;;;;;;;3.47;3.27;;;23.70;91.60;;;;;;5150120;27;20439;-70
2023/06/08 08:31:24;;;;;;;5.00;3.70;;;23.80;92.90;;;;;;5150369;27;20173;-70
2023/06/08 08:33:49;;;;;;;7.10;3.47;;;24.10;92.10;;;;;;5150384;27;20261;-70
2023/06/08 08:36:16;;;;;;;4.27;3.30;;;24.20;92.30;;;;;;5132009;27;21045;-70
2023/06/08 08:38:42;;;;;;;4.00;2.83;;;24.50;92.00;;;;;;5150031;27;20229;-70
2023/06/08 08:41:13;;;;;;;4.03;3.63;;;24.50;91.40;;;;;;5150420;27;20416;-70
2023/06/08 08:44:03;;;;;;;3.67;3.37;;;24.50;91.30;;;;;;5150273;27;20465;-71
2023/06/08 08:46:37;;;;;;;4.73;3.90;;;24.70;90.70;;;;;;5117096;27;20566;-70
2023/06/08 08:49:08;;;;;;;5.90;4.20;;;24.80;90.90;;;;;;5150574;27;20924;-70
2023/06/08 08:51:38;;;;;;;4.27;3.43;;;24.90;91.00;;;;;;5132547;27;20422;-70
2023/06/08 08:54:04;;;;;;;4.57;4.17;;;25.00;91.40;;;;;;5150914;27;20509;-70
2023/06/08 08:56:35;;;;;;;4.40;4.00;;;25.10;91.40;;;;;;5150610;27;20416;-70
2023/06/08 08:59:02;;;;;;;4.50;4.10;;;25.40;90.90;;;;;;5149318;27;20471;-70
2023/06/08 09:01:28;;;;;;;6.20;3.80;;;25.40;89.90;;;;;;5149362;27;20405;-70
2023/06/08 09:03:54;;;;;;;11.87;4.30;;;25.60;87.70;;;;;;5149319;27;20429;-71
2023/06/08 09:06:19;;;;;;;5.27;4.17;;;25.70;87.90;;;;;;5149324;27;20178;-71
2023/06/08 09:08:47;;;;;;;9.60;4.17;;;25.80;87.60;;;;;;5148802;27;20279;-70
2023/06/08 09:11:12;;;;;;;4.60;4.20;;;25.90;88.10;;;;;;5148855;27;20184;-70
2023/06/08 09:13:38;;;;;;;4.50;3.90;;;26.10;87.30;;;;;;5148653;27;20421;-71
2023/06/08 09:16:16;;;;;;;9.93;3.90;;;26.30;85.70;;;;;;5130021;27;20617;-71
2023/06/08 09:18:43;;;;;;;5.33;3.70;;;26.50;86.20;;;;;;5148279;27;20680;-71
2023/06/08 09:21:27;;;;;;;4.23;3.83;;;26.70;83.50;;;;;;5148255;27;20504;-70
2023/06/08 09:24:17;;;;;;;5.50;3.47;;;27.00;80.70;;;;;;5148698;27;20500;-71
2023/06/08 09:26:45;;;;;;;6.63;4.20;;;27.10;82.60;;;;;;5129413;27;20445;-71
2023/06/08 09:29:12;;;;;;;5.87;4.30;;;27.20;82.20;;;;;;5151075;27;20969;-71
2023/06/08 09:31:49;;;;;;;3.90;3.60;;;27.40;79.70;;;;;;5151813;27;20490;-69
2023/06/08 09:34:16;;;;;;;4.77;4.37;;;27.50;78.10;;;;;;5152475;27;20714;-69
2023/06/08 09:36:43;;;;;;;9.40;4.43;;;27.60;74.90;;;;;;5133000;27;20425;-69
2023/06/08 09:39:09;;;;;;;4.27;3.67;;;27.80;74.20;;;;;;5133371;27;20468;-69
2023/06/08 09:41:38;;;;;;;4.90;3.73;;;27.90;72.80;;;;;;5152627;27;20409;-69
2023/06/08 09:44:18;;;;;;;5.20;3.93;;;28.10;74.90;;;;;;5152744;27;20417;-69
2023/06/08 09:46:48;;;;;;;6.97;3.50;;;28.30;72.50;;;;;;5152721;27;20413;-78
2023/06/08 09:49:14;;;;;;;3.90;3.13;;;28.50;72.30;;;;;;5134578;27;20471;-75
2023/06/08 09:51:48;;;;;;;4.63;3.87;;;28.30;72.40;;;;;;5152240;27;20413;-77
2023/06/08 09:54:19;;;;;;;5.07;3.90;;;28.10;72.90;;;;;;5152419;27;20915;-79
2023/06/08 09:56:47;;;;;;;5.50;4.03;;;28.00;72.00;;;;;;5152343;27;20473;-76
2023/06/08 09:59:17;;;;;;;5.53;4.20;;;27.60;69.50;;;;;;5116335;27;20572;-74
2023/06/08 10:01:48;;;;;;;4.20;3.90;;;27.00;71.00;;;;;;5152557;27;20416;-72
2023/06/08 10:04:20;;;;;;;4.80;3.70;;;26.50;68.60;;;;;;5152486;27;20529;-75
2023/06/08 10:06:47;;;;;;;5.90;3.70;;;26.10;70.80;;;;;;5151490;27;20513;-76
2023/06/08 10:09:15;;;;;;;4.80;4.30;;;25.80;70.50;;;;;;5151495;27;20418;-76
2023/06/08 10:11:41;;;;;;;6.93;5.17;;;25.60;69.70;;;;;;5115093;27;20502;-73
2023/06/08 10:14:08;;;;;;;7.77;5.37;;;25.60;70.30;;;;;;5132424;27;20417;-75
2023/06/08 10:16:35;;;;;;;7.93;5.07;;;25.40;70.50;;;;;;5132697;27;20180;-78
2023/06/08 10:19:02;;;;;;;4.97;4.47;;;25.20;70.20;;;;;;5152228;27;20977;-78
2023/06/08 10:21:29;;;;;;;5.33;4.83;;;25.10;71.30;;;;;;5115964;27;20432;-79
2023/06/08 10:23:56;;;;;;;6.20;4.73;;;24.90;71.20;;;;;;5116268;27;20436;-78
2023/06/08 10:26:23;;;;;;;7.57;4.77;;;24.70;69.90;;;;;;5151756;27;20428;-78
2023/06/08 10:29:05;;;;;;;6.13;4.40;;;24.60;71.80;;;;;;5153326;27;20437;-77
2023/06/08 10:31:37;;;;;;;14.50;5.37;;;24.60;70.70;;;;;;5132870;27;20818;-75
2023/06/08 10:34:17;;;;;;;8.70;4.40;;;24.60;71.30;;;;;;5116074;27;20421;-76
2023/06/08 10:36:43;;;;;;;9.30;5.33;;;24.60;71.50;;;;;;5132487;27;20434;-75
2023/06/08 10:39:14;;;;;;;6.20;5.60;;;24.50;72.90;;;;;;5150033;27;20465;-76
2023/06/08 10:41:59;;;;;;;7.03;4.70;;;24.40;72.40;;;;;;5114719;27;20453;-75
2023/06/08 10:44:29;;;;;;;4.90;4.50;;;24.30;70.80;;;;;;5151011;27;20405;-75
2023/06/08 10:47:06;;;;;;;7.70;5.07;;;24.30;72.30;;;;;;5131530;27;20416;-75
2023/06/08 10:49:37;;;;;;;5.30;4.60;;;24.20;69.40;;;;;;5131907;27;20423;-73
2023/06/08 10:52:08;;;;;;;5.10;4.30;;;24.30;67.90;;;;;;5150650;27;20409;-75
2023/06/08 10:54:52;;;;;;;4.73;4.23;;;24.30;68.10;;;;;;5150533;27;20431;-74
2023/06/08 10:57:41;;;;;;;7.30;4.33;;;24.30;70.80;;;;;;5131456;27;20829;-74
2023/06/08 11:00:32;;;;;;;5.23;4.30;;;24.30;73.90;;;;;;5150446;27;20463;-75
2023/06/08 11:03:05;;;;;;;5.10;4.47;;;24.40;71.20;;;;;;5131799;27;20413;-75
2023/06/08 11:05:39;;;;;;;4.27;3.97;;;24.40;71.70;;;;;;5132314;27;20421;-75
2023/06/08 11:08:08;;;;;;;6.17;5.67;;;24.50;72.30;;;;;;5131284;27;20471;-75
2023/06/08 11:10:36;;;;;;;5.53;4.77;;;24.50;72.70;;;;;;5150356;27;20420;-74
2023/06/08 11:13:13;;;;;;;8.13;5.00;;;24.40;79.00;;;;;;5150206;27;20520;-74
2023/06/08 11:15:41;;;;;;;5.67;5.07;;;24.30;77.00;;;;;;5150310;27;20412;-73
2023/06/08 11:18:08;;;;;;;6.43;5.10;;;24.10;75.00;;;;;;5113930;27;20448;-75
2023/06/08 11:20:40;;;;;;;5.93;4.87;;;24.00;79.30;;;;;;5131407;27;20436;-73
2023/06/08 11:23:10;;;;;;;7.10;4.93;;;23.80;80.40;;;;;;5132594;27;20428;-72
2023/06/08 11:25:37;;;;;;;9.17;5.20;;;23.60;80.30;;;;;;5150845;27;20413;-72
2023/06/08 11:28:04;;;;;;;5.60;4.30;;;23.50;81.50;;;;;;5132261;27;20468;-75
2023/06/08 11:30:31;;;;;;;6.63;4.90;;;23.40;82.40;;;;;;5151074;27;20417;-73
2023/06/08 11:32:57;;;;;;;5.37;4.90;;;23.10;79.70;;;;;;5150835;27;20880;-71
2023/06/08 11:35:23;;;;;;;6.53;4.70;;;22.80;74.40;;;;;;5150958;27;20426;-72
2023/06/08 11:37:55;;;;;;;5.40;4.43;;;22.50;74.30;;;;;;5131766;27;20468;-73
2023/06/08 11:40:21;;;;;;;6.77;4.87;;;22.40;75.60;;;;;;5150886;27;20467;-73
2023/06/08 11:42:47;;;;;;;5.40;4.40;;;22.10;75.50;;;;;;5131799;27;20456;-72
2023/06/08 11:45:14;;;;;;;7.60;4.60;;;21.90;73.00;;;;;;5150659;27;20808;-75
2023/06/08 11:47:41;;;;;;;5.67;4.23;;;21.40;71.40;;;;;;5150095;27;20431;-65
2023/06/08 11:50:08;;;;;;;9.53;4.10;;;21.30;72.00;;;;;;5150385;27;20416;-66
2023/06/08 11:52:35;;;;;;;9.73;3.93;;;21.20;73.60;;;;;;5149964;27;20466;-66
2023/06/08 11:55:07;;;;;;;6.30;4.50;;;21.30;73.80;;;;;;5150247;27;20860;-67
2023/06/08 11:57:43;;;;;;;4.33;3.93;;;21.30;72.10;;;;;;5131185;27;20433;-65
2023/06/08 12:00:17;;;;;;;6.27;4.27;;;21.20;72.40;;;;;;5150159;27;20464;-65
2023/06/08 12:02:45;;;;;;;7.70;4.43;;;21.20;74.00;;;;;;5150233;27;20414;-65
2023/06/08 12:05:16;;;;;;;5.10;3.90;;;21.10;73.60;;;;;;5150590;27;20464;-65
2023/06/08 12:08:01;;;;;;;7.50;4.00;;;21.00;75.00;;;;;;5150366;27;20446;-65
2023/06/08 12:10:36;;;;;;;5.93;4.10;;;20.90;73.50;;;;;;5150462;27;20463;-66
2023/06/08 12:13:13;;;;;;;6.73;3.63;;;20.80;73.00;;;;;;5150242;27;20846;-65
2023/06/08 12:15:41;;;;;;;5.50;4.40;;;20.80;73.50;;;;;;5150514;27;20508;-65
2023/06/08 12:18:13;;;;;;;5.80;4.40;;;20.80;73.40;;;;;;5150413;27;20478;-65
2023/06/08 12:20:40;;;;;;;5.43;4.10;;;20.70;73.60;;;;;;5131185;27;20950;-64
2023/06/08 12:23:06;;;;;;;4.80;4.40;;;20.80;74.30;;;;;;5149639;27;20432;-66
2023/06/08 12:25:32;;;;;;;5.23;4.27;;;20.80;72.70;;;;;;5149800;27;20417;-66
2023/06/08 12:27:58;;;;;;;7.10;4.17;;;20.80;74.10;;;;;;5149658;27;20450;-66
2023/06/08 12:30:25;;;;;;;4.00;3.60;;;20.80;72.90;;;;;;5149589;27;20472;-66
2023/06/08 12:32:52;;;;;;;4.77;3.73;;;20.90;73.90;;;;;;5130984;27;20882;-67
2023/06/08 12:35:18;;;;;;;5.80;3.57;;;20.90;73.70;;;;;;5149567;27;20457;-65
2023/06/08 12:37:48;;;;;;;4.00;3.40;;;21.00;75.60;;;;;;5130733;27;20534;-66
2023/06/08 12:40:15;;;;;;;4.50;4.07;;;21.10;74.90;;;;;;5149686;27;20605;-65
2023/06/08 12:42:42;;;;;;;5.30;3.70;;;21.10;74.90;;;;;;5149352;27;20422;-65
2023/06/08 12:45:08;;;;;;;5.77;4.43;;;21.00;74.40;;;;;;5113644;27;20440;-66
2023/06/08 12:47:34;;;;;;;4.50;3.83;;;21.10;76.70;;;;;;5130653;27;20527;-67
2023/06/08 12:49:59;;;;;;;4.47;3.73;;;21.10;77.40;;;;;;5149236;27;21043;-66
2023/06/08 12:52:25;;;;;;;3.93;3.57;;;21.00;77.00;;;;;;5149991;27;20196;-66